createdAt,value
2022-10-12T00:00:08.942Z,27.50
2022-10-12T00:05:41.053Z,26.67
2022-10-12T00:10:45.675Z,30.23
2022-10-12T00:15:49.609Z,24.40
2022-10-12T00:21:03.163Z,27.42
2022-10-12T00:26:09.578Z,63.53
2022-10-12T00:31:15.357Z,209.10
2022-10-12T00:36:22.857Z,145.63
2022-10-12T00:41:28.927Z,46.60
2022-10-12T00:46:37.255Z,34.42
2022-10-12T00:51:45.188Z,52.17
2022-10-12T00:56:49.905Z,31.52
2022-10-12T01:01:53.663Z,33.25
2022-10-12T01:06:59.019Z,32.65
2022-10-12T01:12:06.910Z,37.58
2022-10-12T01:17:23.052Z,28.20
2022-10-12T01:27:47.656Z,43.15
2022-10-12T01:33:09.386Z,34.63
2022-10-12T01:38:29.801Z,27.15
2022-10-12T01:43:39.605Z,26.48
2022-10-12T01:48:47.288Z,27.92
2022-10-12T01:53:58.422Z,22.70
2022-10-12T01:59:10.060Z,22.33
2022-10-12T02:04:22.769Z,18.00
2022-10-12T02:09:29.562Z,15.15
2022-10-12T02:14:39.610Z,18.10
2022-10-12T02:19:49.908Z,17.35
2022-10-12T02:24:57.605Z,16.88
2022-10-12T02:30:01.581Z,17.65
2022-10-12T02:35:14.316Z,17.92
2022-10-12T02:40:25.127Z,19.67
2022-10-12T02:45:30.205Z,22.77
2022-10-12T02:50:35.945Z,16.50
2022-10-12T02:55:40.374Z,18.33
2022-10-12T03:00:44.212Z,22.70
2022-10-12T03:05:49.312Z,23.75
2022-10-12T03:10:53.181Z,20.53
2022-10-12T03:16:02.807Z,25.85
2022-10-12T03:21:08.108Z,21.23
2022-10-12T03:26:11.929Z,19.70
2022-10-12T03:31:15.801Z,16.75
2022-10-12T03:36:20.854Z,17.55
2022-10-12T03:41:24.641Z,16.07
2022-10-12T03:46:30.851Z,14.18
2022-10-12T03:51:35.979Z,16.98
2022-10-12T03:56:39.894Z,18.67
2022-10-12T04:01:43.608Z,18.17
2022-10-12T04:06:48.780Z,19.00
2022-10-12T04:11:52.554Z,18.73
2022-10-12T04:16:56.317Z,17.00
2022-10-12T04:22:01.474Z,18.48
2022-10-12T04:27:05.266Z,18.80
2022-10-12T04:32:12.491Z,15.55
2022-10-12T04:37:17.934Z,16.30
2022-10-12T04:42:21.647Z,17.43
2022-10-12T04:47:25.527Z,19.52
2022-10-12T04:52:30.609Z,26.33
2022-10-12T04:57:34.463Z,16.60
2022-10-12T05:02:38.362Z,18.63
2022-10-12T05:07:43.478Z,17.00
2022-10-12T05:12:47.362Z,11.13
2022-10-12T05:17:51.512Z,11.98
2022-10-12T05:22:58.235Z,12.32
2022-10-12T05:28:02.267Z,11.05
2022-10-12T05:33:06.468Z,14.02
2022-10-12T05:38:12.088Z,16.70
2022-10-12T05:43:15.850Z,18.48
2022-10-12T05:48:19.703Z,26.02
2022-10-12T05:53:24.941Z,28.80
2022-10-12T05:58:30.173Z,23.55
2022-10-12T06:03:35.192Z,37.25
2022-10-12T06:08:40.787Z,35.90
2022-10-12T06:13:45.361Z,38.97
2022-10-12T06:18:50.427Z,39.73
2022-10-12T06:23:55.666Z,39.03
2022-10-12T06:29:01.489Z,36.42
2022-10-12T06:34:07.258Z,43.15
2022-10-12T06:39:13.925Z,35.92
2022-10-12T06:44:17.667Z,30.00
2022-10-12T06:49:21.567Z,39.92
2022-10-12T06:54:26.856Z,38.40
2022-10-12T06:59:30.694Z,39.23
2022-10-12T07:04:34.726Z,32.65
2022-10-12T07:09:39.979Z,38.30
2022-10-12T07:14:43.785Z,40.07
2022-10-12T07:19:47.710Z,33.83
2022-10-12T07:24:53.077Z,35.72
2022-10-12T07:29:57.440Z,36.30
2022-10-12T07:35:01.355Z,33.35
2022-10-12T07:40:08.047Z,26.25
2022-10-12T07:45:12.157Z,28.42
2022-10-12T07:50:16.130Z,27.35
2022-10-12T07:55:23.800Z,31.88
2022-10-12T08:00:27.742Z,34.28
2022-10-12T08:05:31.794Z,35.13
2022-10-12T08:10:38.306Z,23.58
2022-10-12T08:15:42.217Z,16.45
2022-10-12T08:20:46.067Z,23.05
2022-10-12T08:25:55.759Z,25.27
2022-10-12T08:30:59.749Z,16.92
2022-10-12T08:36:05.246Z,20.55
2022-10-12T08:41:24.782Z,23.15
2022-10-12T08:46:30.459Z,16.65
2022-10-12T08:51:45.315Z,46.92
2022-10-12T08:56:54.803Z,19.50
2022-10-12T09:02:06.607Z,22.15
2022-10-12T09:07:17.045Z,24.75
2022-10-12T09:12:34.745Z,25.73
2022-10-12T09:17:43.606Z,32.10
2022-10-12T09:22:50.945Z,19.58
2022-10-12T09:28:07.526Z,19.15
2022-10-12T09:33:19.939Z,15.60
2022-10-12T09:38:24.586Z,18.95
2022-10-12T09:43:29.940Z,10.73
2022-10-12T09:48:33.756Z,20.75
2022-10-12T09:53:44.636Z,16.35
2022-10-12T09:58:54.826Z,15.30
2022-10-12T10:04:15.146Z,12.85
2022-10-12T10:09:30.587Z,19.13
2022-10-12T10:14:37.136Z,14.60
2022-10-12T10:19:41.276Z,15.35
2022-10-12T10:24:50.977Z,13.60
2022-10-12T10:30:25.501Z,8.98
2022-10-12T10:35:33.302Z,16.70
2022-10-12T10:40:37.265Z,12.30
2022-10-12T10:51:00.425Z,15.20
2022-10-12T10:56:09.444Z,14.73
2022-10-12T11:01:23.866Z,16.70
2022-10-12T11:06:38.358Z,11.10
2022-10-12T11:11:44.978Z,11.00
2022-10-12T11:16:54.228Z,13.18
2022-10-12T11:22:02.300Z,10.27
2022-10-12T11:27:12.493Z,10.88
2022-10-12T11:32:26.713Z,13.15
2022-10-12T11:37:39.647Z,14.77
2022-10-12T11:42:43.922Z,11.75
2022-10-12T11:47:53.409Z,13.85
2022-10-12T11:52:59.477Z,12.27
2022-10-12T11:58:13.735Z,7.80
2022-10-12T12:03:27.645Z,12.82
2022-10-12T12:08:59.039Z,9.73
2022-10-12T12:14:35.984Z,9.65
2022-10-12T12:19:43.382Z,14.00
2022-10-12T12:25:04.294Z,11.50
2022-10-12T12:30:28.944Z,12.50
2022-10-12T12:35:38.912Z,10.85
2022-10-12T12:40:55.097Z,11.00
2022-10-12T12:46:00.792Z,9.95
2022-10-12T12:51:08.668Z,14.55
2022-10-12T12:56:20.783Z,12.60
2022-10-12T13:01:45.403Z,10.55
2022-10-12T13:07:39.819Z,12.02
2022-10-12T13:13:25.746Z,14.10
2022-10-12T13:18:49.844Z,10.93
2022-10-12T13:24:05.895Z,12.63
2022-10-12T13:29:22.787Z,17.95
2022-10-12T13:34:32.621Z,16.30
2022-10-12T13:39:40.913Z,9.25
2022-10-12T13:44:48.865Z,7.95
2022-10-12T13:49:54.848Z,12.20
2022-10-12T13:54:59.384Z,7.05
2022-10-12T14:00:13.520Z,19.13
2022-10-12T14:05:19.866Z,19.23
2022-10-12T14:10:41.732Z,22.95
2022-10-12T14:15:47.857Z,15.57
2022-10-12T14:21:12.929Z,11.05
2022-10-12T14:26:37.045Z,23.67
2022-10-12T14:31:53.654Z,15.40
2022-10-12T14:37:05.972Z,19.20
2022-10-12T14:42:26.022Z,11.77
2022-10-12T14:47:48.094Z,13.55
2022-10-12T14:53:08.396Z,13.25
2022-10-12T14:58:25.922Z,20.95
2022-10-12T15:03:33.103Z,22.30
2022-10-12T15:08:46.816Z,19.95
2022-10-12T15:13:52.993Z,17.55
2022-10-12T15:19:02.748Z,10.38
2022-10-12T15:24:16.524Z,8.88
2022-10-12T15:29:23.199Z,17.40
2022-10-12T15:34:30.508Z,13.20
2022-10-12T15:39:37.494Z,18.42
2022-10-12T15:44:45.265Z,28.50
2022-10-12T15:49:53.057Z,19.02
2022-10-12T15:55:05.758Z,23.00
2022-10-12T16:00:16.725Z,32.42
2022-10-12T16:05:26.051Z,28.70
2022-10-12T16:10:43.043Z,24.10
2022-10-12T16:15:48.926Z,31.73
2022-10-12T16:20:57.527Z,30.77
2022-10-12T16:26:04.486Z,39.75
2022-10-12T16:31:12.430Z,40.22
2022-10-12T16:36:18.531Z,62.65
2022-10-12T16:41:22.533Z,141.73
2022-10-12T16:46:26.559Z,64.30
2022-10-12T16:51:31.953Z,82.45
2022-10-12T16:56:39.404Z,98.35
2022-10-12T17:01:44.193Z,142.75
2022-10-12T17:06:49.762Z,72.10
2022-10-12T17:11:53.567Z,75.07
2022-10-12T17:16:58.045Z,53.20
2022-10-12T17:22:06.593Z,62.78
2022-10-12T17:27:14.606Z,97.45
2022-10-12T17:32:19.108Z,222.50
2022-10-12T17:37:25.089Z,117.85
2022-10-12T17:42:29.639Z,106.38
2022-10-12T17:47:33.577Z,111.03
2022-10-12T17:52:48.003Z,101.75
2022-10-12T17:57:52.101Z,89.30
2022-10-12T18:02:55.990Z,115.15
2022-10-12T18:08:01.253Z,162.25
2022-10-12T18:13:05.214Z,172.27
2022-10-12T18:18:14.276Z,144.25
2022-10-12T18:23:21.156Z,150.18
2022-10-12T18:33:30.231Z,132.32
2022-10-12T18:38:35.570Z,174.05
2022-10-12T18:43:39.761Z,125.57
2022-10-12T18:48:43.961Z,125.05
2022-10-12T18:53:49.510Z,141.85
2022-10-12T18:58:54.187Z,144.10
2022-10-12T19:04:00.197Z,216.18
2022-10-12T19:14:14.215Z,176.30
2022-10-12T19:19:21.378Z,182.48
2022-10-12T19:24:27.201Z,164.90
2022-10-12T19:29:31.412Z,173.40
2022-10-12T19:34:35.304Z,244.23
2022-10-12T19:39:44.743Z,167.50
2022-10-12T19:44:49.004Z,199.77
2022-10-12T19:49:56.456Z,219.18
2022-10-12T19:55:01.843Z,174.52
2022-10-12T20:00:08.783Z,163.20
2022-10-12T20:05:16.655Z,141.52
2022-10-12T20:10:22.138Z,145.82
2022-10-12T20:15:26.118Z,130.02
2022-10-12T20:20:30.157Z,131.57
2022-10-12T20:25:35.591Z,110.32
2022-10-12T20:30:39.932Z,126.60
2022-10-12T20:35:48.132Z,113.90
2022-10-12T20:41:02.605Z,124.40
2022-10-12T20:46:08.255Z,118.55
2022-10-12T20:51:17.922Z,99.43
2022-10-12T20:56:23.159Z,108.55
2022-10-12T21:01:28.400Z,111.55
2022-10-12T21:06:32.750Z,101.65
2022-10-12T21:11:38.496Z,101.93
2022-10-12T21:16:42.908Z,99.97
2022-10-12T21:21:47.530Z,148.82
2022-10-12T21:26:53.356Z,101.07
2022-10-12T21:31:57.556Z,110.80
2022-10-12T21:37:01.489Z,102.97
2022-10-12T21:42:07.129Z,98.40
2022-10-12T21:47:17.303Z,90.57
2022-10-12T21:52:21.995Z,85.75
2022-10-12T21:57:28.807Z,83.95
2022-10-12T22:02:32.631Z,81.00
2022-10-12T22:07:36.538Z,84.82
2022-10-12T22:12:41.832Z,91.75
2022-10-12T22:17:45.699Z,86.97
2022-10-12T22:22:49.531Z,86.10
2022-10-12T22:27:54.926Z,82.68
2022-10-12T22:32:58.680Z,95.40
2022-10-12T22:38:02.524Z,82.75
2022-10-12T22:43:07.610Z,78.95
2022-10-12T22:48:11.264Z,85.53
2022-10-12T22:53:16.144Z,77.22
2022-10-12T22:58:21.496Z,74.70
2022-10-12T23:03:25.304Z,83.07
2022-10-12T23:08:29.906Z,74.55
2022-10-12T23:13:40.766Z,81.35
2022-10-12T23:18:44.695Z,71.28
2022-10-12T23:23:48.546Z,63.67
2022-10-12T23:28:54.546Z,65.47
2022-10-12T23:33:59.232Z,63.63
2022-10-12T23:39:05.737Z,63.40
2022-10-12T23:44:11.355Z,77.82
2022-10-12T23:49:15.065Z,63.67
2022-10-12T23:54:18.980Z,60.95
2022-10-12T23:59:24.865Z,61.78
